Time;durP1;ratioP1;P1;durP2;ratioP2;P2;SDS_P1;SDS_P2;PMS_P1;PMS_P2;Temp;Humidity;BMP_temperature;BMP_pressure;BME280_temperature;BME280_humidity;BME280_pressure;Samples;Min_cycle;Max_cycle;Signal;HPM_P1;HPM_P2
2021/03/09 00:01:15;;;;;;;68.43;35.30;;;2.80;61.00;;;;;;6430131;22;20727;-93
2021/03/09 00:04:05;;;;;;;69.00;34.50;;;2.70;99.90;;;;;;6435032;22;20416;-91
2021/03/09 00:09:42;;;;;;;62.27;33.27;;;2.70;99.90;;;;;;6436829;22;20511;-91
2021/03/09 00:15:23;;;;;;;66.50;34.00;;;2.70;1.00;;;;;;6433978;22;20702;-91
2021/03/09 00:18:15;;;;;;;70.23;36.40;;;2.80;1.00;;;;;;6431458;22;20408;-91
2021/03/09 00:26:52;;;;;;;59.87;33.20;;;2.90;99.90;;;;;;6437833;22;20869;-91
2021/03/09 00:32:41;;;;;;;60.10;32.30;;;2.90;99.90;;;;;;6438162;22;20397;-92
2021/03/09 00:38:27;;;;;;;61.17;31.60;;;2.80;99.90;;;;;;6436958;22;20845;-92
2021/03/09 00:41:07;;;;;;;61.37;32.40;;;2.80;99.90;;;;;;6438874;22;20401;-91
2021/03/09 00:46:34;;;;;;;58.47;33.77;;;2.70;1.00;;;;;;6433088;22;20499;-91
2021/03/09 00:49:09;;;;;;;63.93;34.50;;;2.80;99.90;;;;;;6437460;22;20496;-93
2021/03/09 01:00:05;;;;;;;65.80;33.70;;;2.90;89.60;;;;;;6436865;22;20899;-91
2021/03/09 01:05:34;;;;;;;63.70;33.97;;;2.80;1.00;;;;;;6436026;22;20767;-91
2021/03/09 01:08:38;;;;;;;61.97;33.67;;;2.90;99.90;;;;;;6437824;22;20456;-91
2021/03/09 01:11:21;;;;;;;62.93;34.43;;;2.90;1.00;;;;;;6437537;22;20698;-91
2021/03/09 01:13:59;;;;;;;66.90;34.40;;;2.90;1.00;;;;;;6437466;22;20896;-91
2021/03/09 01:16:29;;;;;;;71.10;34.63;;;2.90;99.90;;;;;;6437738;22;20443;-91
2021/03/09 01:19:15;;;;;;;66.80;35.47;;;3.00;1.00;;;;;;6436802;22;20444;-91
2021/03/09 01:21:45;;;;;;;66.73;33.57;;;3.00;99.90;;;;;;6433385;22;20868;-91
2021/03/09 01:24:18;;;;;;;70.40;35.23;;;3.00;99.90;;;;;;6410684;22;20530;-91
2021/03/09 01:26:45;;;;;;;60.17;33.20;;;3.00;99.90;;;;;;6437983;22;20783;-90
2021/03/09 01:29:15;;;;;;;69.50;35.27;;;3.00;1.00;;;;;;6409257;22;20448;-90
2021/03/09 01:31:44;;;;;;;72.93;34.90;;;2.90;99.90;;;;;;6437670;22;20718;-90
2021/03/09 01:34:10;;;;;;;63.03;34.53;;;2.90;99.90;;;;;;6438142;22;20925;-90
2021/03/09 01:36:37;;;;;;;72.60;37.13;;;2.80;99.90;;;;;;6437227;22;20448;-89
2021/03/09 01:39:06;;;;;;;70.43;36.37;;;2.90;91.90;;;;;;6436720;22;20440;-89
2021/03/09 01:41:34;;;;;;;69.57;35.13;;;2.90;99.90;;;;;;6437826;22;20424;-89
2021/03/09 01:44:05;;;;;;;74.73;38.50;;;3.00;99.90;;;;;;6437068;22;20433;-89
2021/03/09 01:46:33;;;;;;;75.10;36.67;;;3.00;1.00;;;;;;6437339;22;20857;-90
2021/03/09 01:49:01;;;;;;;73.57;37.53;;;3.00;1.00;;;;;;6437045;22;20905;-89
2021/03/09 01:51:28;;;;;;;71.37;34.77;;;3.00;1.00;;;;;;6437299;22;20846;-89
2021/03/09 01:53:55;;;;;;;73.93;37.80;;;3.00;1.00;;;;;;6437651;22;20545;-89
2021/03/09 01:56:22;;;;;;;68.43;35.67;;;3.00;1.00;;;;;;6437305;22;20437;-89
2021/03/09 01:58:56;;;;;;;65.40;39.33;;;3.00;1.00;;;;;;6437094;22;20735;-89
2021/03/09 02:01:23;;;;;;;70.97;38.57;;;3.20;1.00;;;;;;6437571;22;20733;-89
2021/03/09 02:03:50;;;;;;;65.40;37.70;;;3.20;17.90;;;;;;6435953;22;20371;-89
2021/03/09 02:06:18;;;;;;;70.17;38.97;;;3.30;74.20;;;;;;6435363;22;20431;-89
2021/03/09 02:08:46;;;;;;;75.83;40.30;;;3.30;99.90;;;;;;6436227;22;20443;-89
2021/03/09 02:11:23;;;;;;;73.97;39.87;;;3.40;99.90;;;;;;6437653;22;20933;-89
2021/03/09 02:14:00;;;;;;;71.33;38.70;;;3.40;99.90;;;;;;6436710;22;20850;-89
2021/03/09 02:16:31;;;;;;;61.40;33.13;;;3.40;99.90;;;;;;6437483;22;20456;-89
2021/03/09 02:19:06;;;;;;;70.97;37.43;;;3.30;99.90;;;;;;6435663;22;20437;-89
2021/03/09 02:22:06;;;;;;;80.83;37.80;;;3.30;99.90;;;;;;6437538;22;20420;-89
2021/03/09 02:25:05;;;;;;;66.00;36.90;;;3.20;99.90;;;;;;6404185;22;20425;-89
2021/03/09 02:27:40;;;;;;;70.17;38.53;;;3.20;99.90;;;;;;6405250;22;20421;-89
2021/03/09 02:30:14;;;;;;;68.70;39.67;;;3.20;99.90;;;;;;6404202;22;20734;-89
2021/03/09 02:32:45;;;;;;;68.90;40.03;;;3.20;99.90;;;;;;6404659;22;20421;-89
2021/03/09 02:35:16;;;;;;;70.37;40.03;;;3.20;99.90;;;;;;6405217;22;20508;-89
2021/03/09 02:37:47;;;;;;;73.00;39.23;;;3.20;99.90;;;;;;6404738;22;20452;-89
2021/03/09 02:40:16;;;;;;;68.37;39.57;;;3.30;99.90;;;;;;6404874;22;20452;-89
2021/03/09 02:42:50;;;;;;;67.20;37.87;;;3.30;99.90;;;;;;6376115;22;20414;-89
2021/03/09 02:45:21;;;;;;;73.97;39.73;;;3.30;99.90;;;;;;6404158;22;20396;-89
2021/03/09 02:47:49;;;;;;;69.20;38.70;;;3.30;99.90;;;;;;6404793;22;20428;-89
2021/03/09 02:50:20;;;;;;;73.20;38.30;;;3.30;99.90;;;;;;6404331;22;20460;-90
2021/03/09 02:52:51;;;;;;;77.47;40.77;;;3.20;99.90;;;;;;6404601;22;20425;-89
2021/03/09 02:55:20;;;;;;;68.00;38.63;;;3.30;99.90;;;;;;6404178;22;20739;-89
2021/03/09 02:57:49;;;;;;;82.97;42.67;;;3.30;99.90;;;;;;6405383;22;20425;-89
2021/03/09 03:00:18;;;;;;;75.93;42.47;;;3.40;99.90;;;;;;6404269;22;20473;-89
2021/03/09 03:02:46;;;;;;;79.80;43.53;;;3.40;99.90;;;;;;6403238;22;20429;-89
2021/03/09 03:05:15;;;;;;;79.90;42.63;;;3.40;99.90;;;;;;6402366;22;20426;-89
2021/03/09 03:07:43;;;;;;;81.33;44.87;;;3.50;99.90;;;;;;6405126;22;20429;-89
2021/03/09 03:10:14;;;;;;;83.80;44.57;;;3.50;99.90;;;;;;6404445;22;20444;-89
2021/03/09 03:12:43;;;;;;;84.20;46.10;;;3.40;99.90;;;;;;6404598;22;20426;-89
2021/03/09 03:15:13;;;;;;;85.13;44.00;;;3.40;99.90;;;;;;6405446;22;20426;-89
2021/03/09 03:17:45;;;;;;;78.87;44.33;;;3.40;99.90;;;;;;6404568;22;20475;-89
2021/03/09 03:20:15;;;;;;;78.53;43.40;;;3.40;99.90;;;;;;6403902;22;20473;-89
2021/03/09 03:22:44;;;;;;;77.80;43.00;;;3.50;99.90;;;;;;6412423;22;20769;-89
2021/03/09 03:25:14;;;;;;;66.23;39.10;;;3.50;99.90;;;;;;6435309;22;20452;-89
2021/03/09 03:27:42;;;;;;;74.00;42.20;;;3.50;99.90;;;;;;6437124;22;20428;-90
2021/03/09 03:30:11;;;;;;;75.57;44.00;;;3.40;99.90;;;;;;6436484;22;20512;-90
2021/03/09 03:32:38;;;;;;;65.53;40.87;;;3.40;99.90;;;;;;6435981;22;20495;-90
2021/03/09 03:35:09;;;;;;;76.77;41.80;;;3.40;99.90;;;;;;6436506;22;20401;-90
2021/03/09 03:37:37;;;;;;;71.80;40.00;;;3.40;99.90;;;;;;6437244;22;20421;-90
2021/03/09 03:40:07;;;;;;;73.40;40.47;;;3.30;99.90;;;;;;6436292;22;20440;-90
2021/03/09 03:42:34;;;;;;;75.13;42.57;;;3.30;99.90;;;;;;6435888;22;20404;-92
2021/03/09 03:45:01;;;;;;;70.53;42.43;;;3.30;99.90;;;;;;6436767;22;20518;-89
2021/03/09 03:47:28;;;;;;;69.67;41.50;;;3.30;99.90;;;;;;6436496;22;20401;-89
2021/03/09 03:49:55;;;;;;;71.13;41.57;;;3.30;99.90;;;;;;6436148;22;20421;-89
2021/03/09 03:52:32;;;;;;;65.70;39.27;;;3.30;99.90;;;;;;6435762;22;20886;-89
2021/03/09 03:55:13;;;;;;;67.87;39.53;;;3.20;99.90;;;;;;6436193;22;20420;-89
2021/03/09 03:57:45;;;;;;;63.63;39.80;;;3.30;99.90;;;;;;6436461;22;20432;-89
2021/03/09 04:00:14;;;;;;;70.40;40.93;;;3.30;99.90;;;;;;6436394;22;20451;-89
2021/03/09 04:02:43;;;;;;;71.77;41.60;;;3.30;99.90;;;;;;6437180;22;20435;-89
2021/03/09 04:05:12;;;;;;;76.37;40.13;;;3.20;99.90;;;;;;6438387;22;20455;-91
2021/03/09 04:07:40;;;;;;;79.03;41.40;;;3.20;99.90;;;;;;6438728;22;20454;-89
2021/03/09 04:10:08;;;;;;;68.63;40.13;;;3.20;99.90;;;;;;6437984;22;20424;-89
2021/03/09 04:12:37;;;;;;;66.43;40.07;;;3.20;99.90;;;;;;6437766;22;20456;-89
2021/03/09 04:15:07;;;;;;;75.00;40.50;;;3.10;99.90;;;;;;6438538;22;20704;-91
2021/03/09 04:17:35;;;;;;;70.73;41.30;;;3.20;99.90;;;;;;6438320;22;20485;-89
2021/03/09 04:20:04;;;;;;;70.77;40.40;;;3.20;99.90;;;;;;6438623;22;20444;-90
2021/03/09 04:22:33;;;;;;;74.43;40.57;;;3.10;99.90;;;;;;6437711;22;20422;-89
2021/03/09 04:25:01;;;;;;;70.87;41.27;;;3.10;99.90;;;;;;6438892;22;20427;-89
2021/03/09 04:27:29;;;;;;;74.33;41.23;;;3.10;99.90;;;;;;6438240;22;20462;-90
2021/03/09 04:29:57;;;;;;;77.63;41.90;;;3.10;99.90;;;;;;6437616;22;20423;-89
2021/03/09 04:32:25;;;;;;;76.63;43.57;;;3.10;99.90;;;;;;6437957;22;20420;-89
2021/03/09 04:34:56;;;;;;;70.97;41.10;;;3.20;99.90;;;;;;6438371;22;20748;-89
2021/03/09 04:37:24;;;;;;;83.40;43.57;;;3.20;99.90;;;;;;6438534;22;20455;-90
2021/03/09 04:39:52;;;;;;;80.70;44.60;;;3.20;99.90;;;;;;6409020;22;20865;-90
2021/03/09 04:42:20;;;;;;;80.17;43.97;;;3.20;99.90;;;;;;6438077;22;20859;-89
2021/03/09 04:44:49;;;;;;;71.00;41.03;;;3.20;99.90;;;;;;6437669;22;20485;-90
2021/03/09 04:47:18;;;;;;;74.50;43.57;;;3.20;99.90;;;;;;6438901;22;20448;-90
2021/03/09 04:49:45;;;;;;;87.17;46.80;;;3.20;99.90;;;;;;6437680;22;20457;-90
2021/03/09 04:52:13;;;;;;;83.37;44.80;;;3.20;99.90;;;;;;6437780;22;20429;-90
2021/03/09 04:54:40;;;;;;;76.33;42.73;;;3.10;99.90;;;;;;6409696;22;20412;-90
2021/03/09 04:57:07;;;;;;;83.50;46.70;;;3.20;99.90;;;;;;6438627;22;20433;-90
2021/03/09 04:59:36;;;;;;;77.80;43.93;;;3.20;99.90;;;;;;6437689;22;20440;-89
2021/03/09 05:02:03;;;;;;;79.67;44.70;;;3.20;99.90;;;;;;6437420;22;20402;-90
2021/03/09 05:04:30;;;;;;;80.60;45.80;;;3.20;99.90;;;;;;6436945;22;20508;-90
2021/03/09 05:06:58;;;;;;;75.47;45.10;;;3.20;99.90;;;;;;6437803;22;20425;-90
2021/03/09 05:09:25;;;;;;;81.90;46.00;;;3.10;99.90;;;;;;6436294;22;20849;-89
2021/03/09 05:11:52;;;;;;;92.57;47.27;;;3.10;99.90;;;;;;6436425;22;20435;-90
2021/03/09 05:14:19;;;;;;;90.33;46.73;;;3.20;99.90;;;;;;6437394;22;20429;-90
2021/03/09 05:16:47;;;;;;;86.87;47.20;;;3.10;99.90;;;;;;6438052;22;20453;-89
2021/03/09 05:19:14;;;;;;;91.77;48.30;;;3.10;99.90;;;;;;6436439;22;20532;-91
2021/03/09 05:21:41;;;;;;;78.67;45.50;;;3.00;99.90;;;;;;6408677;22;20515;-90
2021/03/09 05:24:09;;;;;;;77.83;43.33;;;3.10;99.90;;;;;;6409294;22;20491;-91
2021/03/09 05:26:38;;;;;;;77.17;46.23;;;3.00;99.90;;;;;;6437603;22;20421;-90
2021/03/09 05:29:06;;;;;;;75.80;46.97;;;3.00;99.90;;;;;;6438215;22;20705;-90
2021/03/09 05:31:33;;;;;;;78.17;44.33;;;3.10;99.90;;;;;;6437593;22;20411;-90
2021/03/09 05:34:03;;;;;;;72.83;43.40;;;3.00;99.90;;;;;;6437434;22;20401;-90
2021/03/09 05:36:33;;;;;;;79.60;48.80;;;3.00;99.90;;;;;;6409969;22;20420;-89
2021/03/09 05:39:00;;;;;;;71.57;42.60;;;3.00;99.90;;;;;;6437120;22;20861;-91
2021/03/09 05:41:29;;;;;;;73.30;43.47;;;3.00;99.90;;;;;;6437903;22;20428;-91
2021/03/09 05:43:56;;;;;;;78.87;44.70;;;3.00;99.90;;;;;;6436695;22;20408;-90
2021/03/09 05:46:24;;;;;;;73.53;45.60;;;2.90;99.90;;;;;;6437687;22;20465;-90
2021/03/09 05:48:51;;;;;;;74.33;44.27;;;3.00;99.90;;;;;;6408672;22;20946;-92
2021/03/09 05:51:19;;;;;;;72.33;42.30;;;3.00;99.90;;;;;;6436201;22;20413;-92
2021/03/09 05:53:46;;;;;;;73.40;44.20;;;2.90;99.90;;;;;;6438053;22;20379;-92
2021/03/09 05:56:23;;;;;;;78.80;45.30;;;2.90;99.90;;;;;;6437064;22;20497;-92
2021/03/09 05:58:50;;;;;;;74.33;44.20;;;2.90;99.90;;;;;;6436754;22;20427;-90
2021/03/09 06:01:17;;;;;;;69.60;41.77;;;2.90;99.90;;;;;;6436836;22;20444;-91
2021/03/09 06:03:45;;;;;;;70.97;41.40;;;2.90;99.90;;;;;;6435165;22;20420;-90
2021/03/09 06:06:14;;;;;;;70.17;40.50;;;2.80;99.90;;;;;;6437134;22;20766;-90
2021/03/09 06:08:45;;;;;;;72.50;40.07;;;2.90;99.90;;;;;;6436989;22;20481;-89
2021/03/09 06:11:13;;;;;;;70.57;39.90;;;2.80;99.90;;;;;;6437749;22;20424;-90
2021/03/09 06:13:42;;;;;;;74.27;42.40;;;2.90;99.90;;;;;;6409611;22;20507;-92
2021/03/09 06:16:10;;;;;;;64.80;40.13;;;3.00;99.90;;;;;;6437284;22;20503;-92
2021/03/09 06:18:38;;;;;;;68.10;39.83;;;2.90;99.90;;;;;;6408805;22;20767;-92
2021/03/09 06:21:10;;;;;;;62.47;39.80;;;2.90;99.90;;;;;;6408598;22;20441;-90
2021/03/09 06:23:37;;;;;;;70.57;40.50;;;2.90;99.90;;;;;;6436882;22;20488;-90
2021/03/09 06:26:33;;;;;;;68.93;39.53;;;2.90;99.90;;;;;;6437827;22;20825;-90
2021/03/09 06:29:08;;;;;;;69.60;38.93;;;2.90;99.90;;;;;;6436185;22;20445;-89
2021/03/09 06:31:35;;;;;;;66.50;39.73;;;2.90;99.90;;;;;;6436520;22;20459;-89
2021/03/09 06:34:20;;;;;;;73.03;40.63;;;2.90;99.90;;;;;;6437932;22;20416;-88
2021/03/09 06:37:02;;;;;;;69.93;41.03;;;2.90;99.90;;;;;;6437074;22;20400;-91
2021/03/09 06:39:52;;;;;;;62.37;36.10;;;2.80;99.90;;;;;;6436501;22;20440;-90
2021/03/09 06:42:22;;;;;;;62.73;37.60;;;2.80;99.90;;;;;;6436013;22;20401;-90
2021/03/09 06:44:54;;;;;;;62.60;38.03;;;2.70;99.90;;;;;;6437406;22;20698;-91
2021/03/09 06:47:32;;;;;;;68.23;35.97;;;2.70;99.90;;;;;;6436856;22;20747;-89
2021/03/09 06:50:00;;;;;;;67.20;37.17;;;2.70;99.90;;;;;;6437023;22;20417;-89
2021/03/09 06:52:30;;;;;;;64.70;38.37;;;2.80;99.90;;;;;;6436846;22;20450;-89
2021/03/09 06:54:59;;;;;;;64.93;35.50;;;2.80;99.90;;;;;;6436184;22;20397;-91
2021/03/09 06:57:28;;;;;;;64.47;35.70;;;2.80;99.90;;;;;;6437398;22;20436;-89
2021/03/09 06:59:59;;;;;;;62.53;36.50;;;2.80;99.90;;;;;;6436407;22;20566;-91
2021/03/09 07:02:26;;;;;;;64.70;38.50;;;2.80;99.90;;;;;;6435104;22;20510;-89
2021/03/09 07:05:04;;;;;;;61.50;36.87;;;2.80;99.90;;;;;;6435117;22;20845;-89
2021/03/09 07:07:32;;;;;;;63.70;38.07;;;2.80;99.90;;;;;;6436084;22;20427;-89
2021/03/09 07:10:03;;;;;;;65.00;39.20;;;2.80;99.90;;;;;;6436489;22;20444;-91
2021/03/09 07:12:31;;;;;;;57.73;37.63;;;2.80;99.90;;;;;;6436758;22;20420;-91
2021/03/09 07:15:00;;;;;;;65.43;37.30;;;2.80;99.90;;;;;;6436856;22;20844;-90
2021/03/09 07:17:28;;;;;;;54.80;34.27;;;2.80;99.90;;;;;;6436216;22;20421;-91
2021/03/09 07:19:56;;;;;;;56.53;35.17;;;2.80;99.90;;;;;;6436693;22;20539;-91
2021/03/09 07:22:25;;;;;;;54.23;32.30;;;2.80;99.90;;;;;;6436132;22;20517;-91
2021/03/09 07:25:01;;;;;;;53.60;33.50;;;2.70;99.90;;;;;;6436199;22;20503;-88
2021/03/09 07:27:36;;;;;;;59.60;36.30;;;2.80;99.90;;;;;;6436556;22;20420;-91
2021/03/09 07:30:05;;;;;;;56.90;33.77;;;2.80;99.90;;;;;;6436487;22;20433;-89
2021/03/09 07:32:32;;;;;;;64.37;39.20;;;2.80;99.90;;;;;;6436258;22;20881;-91
2021/03/09 07:35:00;;;;;;;65.07;37.87;;;2.90;99.90;;;;;;6435478;22;20425;-91
2021/03/09 07:37:27;;;;;;;60.73;36.27;;;2.80;99.90;;;;;;6436795;22;20754;-89
2021/03/09 07:39:55;;;;;;;60.10;34.83;;;2.90;99.90;;;;;;6436674;22;20444;-91
2021/03/09 07:42:21;;;;;;;59.87;34.40;;;2.90;99.90;;;;;;6435534;22;20432;-91
2021/03/09 07:44:50;;;;;;;54.30;35.33;;;2.90;99.90;;;;;;6436434;22;20404;-91
2021/03/09 07:47:19;;;;;;;53.17;32.97;;;2.90;99.90;;;;;;6435727;22;20861;-90
2021/03/09 07:49:46;;;;;;;49.17;33.13;;;2.80;99.90;;;;;;6437038;22;20421;-89
2021/03/09 07:52:18;;;;;;;56.10;35.37;;;2.80;99.90;;;;;;6436082;22;20474;-91
2021/03/09 07:55:24;;;;;;;53.70;34.53;;;2.80;99.90;;;;;;6437486;22;20507;-91
2021/03/09 07:58:18;;;;;;;56.80;34.50;;;2.70;99.90;;;;;;6422504;22;20424;-91
2021/03/09 08:00:52;;;;;;;58.93;35.83;;;2.80;99.90;;;;;;6437018;22;20441;-91
2021/03/09 08:03:22;;;;;;;54.73;33.97;;;2.80;99.90;;;;;;6433627;22;20408;-89
2021/03/09 08:05:51;;;;;;;61.23;37.20;;;2.80;99.90;;;;;;6436041;22;20405;-91
2021/03/09 08:08:36;;;;;;;54.67;33.03;;;2.80;99.90;;;;;;6435653;22;20480;-91
2021/03/09 08:11:04;;;;;;;63.00;38.00;;;2.80;99.90;;;;;;6435764;22;20707;-91
2021/03/09 08:13:31;;;;;;;61.20;38.10;;;2.80;99.90;;;;;;6436753;22;20420;-91
2021/03/09 08:16:32;;;;;;;63.00;37.30;;;2.90;99.90;;;;;;6435720;22;20858;-90
2021/03/09 08:19:05;;;;;;;58.07;35.37;;;2.90;99.90;;;;;;6435842;22;20395;-91
2021/03/09 08:21:54;;;;;;;57.40;36.83;;;2.90;99.90;;;;;;6435092;22;20541;-90
2021/03/09 08:24:38;;;;;;;56.10;36.00;;;2.90;99.90;;;;;;6436379;22;20896;-90
2021/03/09 08:27:04;;;;;;;56.70;33.83;;;2.90;99.90;;;;;;6435144;22;20787;-90
2021/03/09 08:29:41;;;;;;;50.20;31.87;;;2.90;99.90;;;;;;6435918;22;20519;-91
2021/03/09 08:32:36;;;;;;;55.80;35.20;;;2.90;99.90;;;;;;6435891;22;20420;-91
2021/03/09 08:35:39;;;;;;;52.53;33.47;;;2.80;99.90;;;;;;6343919;22;20449;-93
2021/03/09 08:38:15;;;;;;;55.33;33.63;;;2.90;99.90;;;;;;6436386;22;20400;-90
2021/03/09 08:41:12;;;;;;;52.63;34.43;;;3.00;99.90;;;;;;6435481;22;20515;-89
2021/03/09 08:43:41;;;;;;;50.03;32.10;;;3.10;99.90;;;;;;6436403;22;20748;-91
2021/03/09 08:46:10;;;;;;;50.30;32.93;;;3.10;99.90;;;;;;6436264;22;20456;-91
2021/03/09 08:48:48;;;;;;;50.60;33.03;;;3.10;99.90;;;;;;6438609;22;20718;-91
2021/03/09 08:51:42;;;;;;;48.10;31.53;;;3.20;99.90;;;;;;6438172;22;20837;-89
2021/03/09 08:54:35;;;;;;;52.03;31.90;;;3.10;99.90;;;;;;6346152;22;20926;-91
2021/03/09 08:57:13;;;;;;;50.63;33.33;;;3.20;99.90;;;;;;6437593;22;20431;-91
2021/03/09 08:59:41;;;;;;;50.47;31.80;;;3.30;99.90;;;;;;6438366;22;20475;-90
2021/03/09 09:02:14;;;;;;;45.10;30.50;;;3.40;99.90;;;;;;6437215;22;20421;-90
2021/03/09 09:04:50;;;;;;;44.33;29.27;;;3.50;99.90;;;;;;6437377;22;20420;-91
2021/03/09 09:07:23;;;;;;;44.73;31.33;;;3.50;99.90;;;;;;6409837;22;20476;-90
2021/03/09 09:09:55;;;;;;;40.73;29.13;;;3.50;99.90;;;;;;6437805;22;20481;-91
2021/03/09 09:12:42;;;;;;;46.83;29.10;;;3.70;99.90;;;;;;6409600;22;20448;-90
2021/03/09 09:15:26;;;;;;;40.03;28.13;;;3.70;99.90;;;;;;6437496;22;20785;-90
2021/03/09 09:17:56;;;;;;;43.50;29.43;;;3.50;99.90;;;;;;6437683;22;20435;-92
2021/03/09 09:20:31;;;;;;;38.87;28.27;;;3.40;99.90;;;;;;6437662;22;20460;-91
2021/03/09 09:23:08;;;;;;;42.50;30.23;;;3.30;99.90;;;;;;6437527;22;20872;-89
2021/03/09 09:25:43;;;;;;;40.87;27.80;;;3.30;99.90;;;;;;6438235;22;20496;-91
2021/03/09 09:28:30;;;;;;;43.10;26.93;;;3.30;99.90;;;;;;6437741;22;20827;-90
2021/03/09 09:31:06;;;;;;;40.90;28.20;;;3.30;99.90;;;;;;6437636;22;20422;-90
2021/03/09 09:33:39;;;;;;;40.80;26.20;;;3.20;99.90;;;;;;6437870;22;20416;-92
2021/03/09 09:36:11;;;;;;;42.33;27.20;;;3.10;99.90;;;;;;6438520;22;20416;-92
2021/03/09 09:38:39;;;;;;;42.20;28.97;;;3.00;99.90;;;;;;6437056;22;20913;-91
2021/03/09 09:41:10;;;;;;;40.17;29.03;;;3.00;99.90;;;;;;6437351;22;20451;-92
2021/03/09 09:43:42;;;;;;;44.87;28.03;;;3.10;99.90;;;;;;6437708;22;20443;-92
2021/03/09 09:46:23;;;;;;;44.97;29.47;;;3.10;99.90;;;;;;6437498;22;20401;-92
2021/03/09 09:48:54;;;;;;;39.97;27.63;;;3.10;99.90;;;;;;6437506;22;20763;-92
2021/03/09 09:51:27;;;;;;;40.63;26.80;;;3.10;99.90;;;;;;6438191;22;20444;-92
2021/03/09 09:53:59;;;;;;;40.77;24.90;;;3.20;99.90;;;;;;6436484;22;20401;-92
2021/03/09 09:56:37;;;;;;;37.30;25.27;;;3.20;99.90;;;;;;6437663;22;20913;-92
2021/03/09 09:59:08;;;;;;;36.97;25.97;;;3.20;99.90;;;;;;6436184;22;20832;-90
2021/03/09 10:01:48;;;;;;;36.50;23.13;;;3.20;99.90;;;;;;6436454;22;20475;-92
2021/03/09 10:04:17;;;;;;;36.67;24.93;;;3.20;99.90;;;;;;6431087;22;20881;-92
2021/03/09 10:06:53;;;;;;;35.90;23.67;;;3.20;99.90;;;;;;6437477;22;20836;-92
2021/03/09 10:09:28;;;;;;;37.03;23.37;;;3.20;99.90;;;;;;6438123;22;20476;-91
2021/03/09 10:12:24;;;;;;;30.87;23.07;;;3.10;99.90;;;;;;6436436;22;20506;-92
2021/03/09 10:26:46;;;;;;;32.77;22.80;;;3.20;99.90;;;;;;6434705;22;20432;-91
2021/03/09 10:58:59;;;;;;;22.00;17.27;;;3.00;99.90;;;;;;6402606;22;20445;-91
2021/03/09 11:11:03;;;;;;;24.57;16.67;;;3.30;99.90;;;;;;6394724;22;20552;-91
2021/03/09 12:33:55;;;;;;;41.83;27.37;;;4.60;99.90;;;;;;6402410;22;20451;-90
2021/03/09 12:36:24;;;;;;;38.20;26.40;;;4.60;99.90;;;;;;6373070;22;20425;-90
2021/03/09 12:39:02;;;;;;;35.63;25.23;;;4.60;99.90;;;;;;6372501;22;20438;-91
2021/03/09 12:41:35;;;;;;;35.47;25.00;;;4.70;99.90;;;;;;6374313;22;20492;-91
2021/03/09 12:44:15;;;;;;;35.20;24.10;;;4.80;99.90;;;;;;6373585;22;20406;-90
2021/03/09 12:46:50;;;;;;;36.23;25.80;;;4.70;99.90;;;;;;6345294;22;20517;-90
2021/03/09 12:49:49;;;;;;;38.47;25.90;;;4.80;99.90;;;;;;6373164;22;20421;-90
2021/03/09 12:52:17;;;;;;;35.73;26.30;;;4.90;99.90;;;;;;6373667;22;20455;-88
2021/03/09 12:54:50;;;;;;;35.60;26.20;;;5.00;99.90;;;;;;6373879;22;20410;-88
2021/03/09 12:57:20;;;;;;;37.30;27.67;;;5.20;99.90;;;;;;6373909;22;20426;-88
2021/03/09 12:59:47;;;;;;;39.70;28.23;;;5.10;99.90;;;;;;6374009;22;20721;-90
2021/03/09 13:02:14;;;;;;;33.90;25.40;;;4.80;99.90;;;;;;6372685;22;20513;-90
2021/03/09 13:04:42;;;;;;;38.77;26.87;;;4.70;99.90;;;;;;6372962;22;20407;-90
2021/03/09 13:07:09;;;;;;;36.57;27.40;;;4.70;99.90;;;;;;6373636;22;20437;-88
2021/03/09 13:27:40;;;;;;;41.73;30.10;;;4.70;99.90;;;;;;6378548;22;20857;-90
2021/03/09 13:30:14;;;;;;;40.13;29.10;;;4.70;99.90;;;;;;6397223;22;20444;-90
2021/03/09 13:32:41;;;;;;;48.10;30.07;;;4.60;99.90;;;;;;6404312;22;20397;-90
2021/03/09 13:35:09;;;;;;;43.57;30.70;;;4.60;99.90;;;;;;6405657;22;20474;-90
2021/03/09 13:37:36;;;;;;;54.87;36.47;;;4.60;99.90;;;;;;6405155;22;20410;-90
2021/03/09 13:40:05;;;;;;;47.20;31.63;;;4.70;99.90;;;;;;6406046;22;20460;-90
2021/03/09 13:42:34;;;;;;;54.80;39.30;;;4.60;99.90;;;;;;6405891;22;20454;-90
2021/03/09 13:45:03;;;;;;;46.10;31.20;;;4.60;99.90;;;;;;6406176;22;20508;-90
2021/03/09 13:47:31;;;;;;;49.13;34.17;;;4.60;99.90;;;;;;6405737;22;20726;-90
2021/03/09 13:49:58;;;;;;;50.57;34.00;;;4.50;99.90;;;;;;6405565;22;20516;-90
2021/03/09 13:52:25;;;;;;;47.30;34.63;;;4.50;99.90;;;;;;6406082;22;20421;-90
2021/03/09 13:54:51;;;;;;;52.17;36.60;;;4.40;99.90;;;;;;6403972;22;20401;-90
2021/03/09 13:57:18;;;;;;;51.53;37.00;;;4.50;99.90;;;;;;6403974;22;20440;-90
2021/03/09 13:59:45;;;;;;;55.70;39.10;;;4.50;99.90;;;;;;6404216;22;20504;-90
2021/03/09 14:02:13;;;;;;;51.80;35.93;;;4.40;99.90;;;;;;6404038;22;20850;-90
2021/03/09 14:04:41;;;;;;;51.87;36.37;;;4.50;99.90;;;;;;6404041;22;20489;-89
2021/03/09 14:07:11;;;;;;;63.90;42.37;;;4.50;99.90;;;;;;6404222;22;20428;-90
2021/03/09 14:09:37;;;;;;;55.63;38.03;;;4.40;99.90;;;;;;6404596;22;20738;-90
2021/03/09 14:12:05;;;;;;;42.73;32.60;;;4.40;99.90;;;;;;6404982;22;20512;-90
2021/03/09 14:14:32;;;;;;;43.47;32.53;;;4.40;99.90;;;;;;6404636;22;20429;-90
2021/03/09 14:16:59;;;;;;;48.30;33.63;;;4.40;99.90;;;;;;6405428;22;20475;-90
2021/03/09 14:19:27;;;;;;;49.13;34.83;;;4.60;99.90;;;;;;6403410;22;20424;-90
2021/03/09 14:21:56;;;;;;;44.50;33.00;;;4.70;99.90;;;;;;6405223;22;20540;-90
2021/03/09 14:24:23;;;;;;;38.23;27.83;;;4.60;99.90;;;;;;6404879;22;20502;-90
2021/03/09 14:26:51;;;;;;;33.20;26.20;;;4.60;99.90;;;;;;6405860;22;20414;-90
2021/03/09 14:29:18;;;;;;;42.57;31.40;;;4.50;99.90;;;;;;6405637;22;20421;-90
2021/03/09 14:31:47;;;;;;;36.57;27.10;;;4.50;99.90;;;;;;6404912;22;20972;-90
2021/03/09 14:34:14;;;;;;;37.13;27.50;;;4.50;99.90;;;;;;6404981;22;20720;-90
2021/03/09 14:36:46;;;;;;;35.77;27.90;;;4.50;99.90;;;;;;6405441;22;20489;-90
2021/03/09 14:39:20;;;;;;;37.37;28.23;;;4.50;99.90;;;;;;6403214;22;20418;-90
2021/03/09 14:41:52;;;;;;;38.00;28.40;;;4.50;99.90;;;;;;6403482;22;20445;-90
2021/03/09 14:44:26;;;;;;;40.60;28.10;;;4.50;99.90;;;;;;6405210;22;20425;-90
2021/03/09 14:46:55;;;;;;;43.73;30.83;;;4.50;99.90;;;;;;6405218;22;20428;-90
2021/03/09 14:49:25;;;;;;;72.27;47.43;;;4.50;99.90;;;;;;6404836;22;20530;-90
2021/03/09 14:51:54;;;;;;;48.47;31.97;;;4.50;99.90;;;;;;6377523;22;20418;-90
2021/03/09 14:54:27;;;;;;;46.40;34.37;;;4.50;99.90;;;;;;6405073;22;20421;-90
2021/03/09 14:56:54;;;;;;;43.60;30.07;;;4.50;99.90;;;;;;6405025;22;20421;-91
2021/03/09 14:59:23;;;;;;;50.77;32.10;;;4.70;99.90;;;;;;6404570;22;20760;-91
2021/03/09 15:01:52;;;;;;;40.37;29.60;;;4.60;99.90;;;;;;6404073;22;20445;-90
2021/03/09 15:04:22;;;;;;;46.10;30.00;;;4.60;99.90;;;;;;6403243;22;20845;-90
2021/03/09 15:06:51;;;;;;;42.67;30.17;;;4.60;99.90;;;;;;6405186;22;20731;-91
2021/03/09 15:09:20;;;;;;;39.20;27.33;;;4.60;99.90;;;;;;6404534;22;20470;-91
2021/03/09 15:11:50;;;;;;;42.13;30.77;;;4.60;99.90;;;;;;6405662;22;20421;-91
2021/03/09 15:14:19;;;;;;;48.40;33.33;;;4.70;99.90;;;;;;6404358;22;20421;-91
2021/03/09 15:16:49;;;;;;;41.80;31.00;;;4.70;99.90;;;;;;6404884;22;20909;-91
2021/03/09 15:19:25;;;;;;;42.03;30.30;;;4.60;99.90;;;;;;6404326;22;20482;-91
2021/03/09 15:21:53;;;;;;;45.87;30.50;;;4.60;99.90;;;;;;6402760;22;20437;-90
2021/03/09 15:24:28;;;;;;;43.30;32.07;;;4.70;99.90;;;;;;6405227;22;20520;-91
2021/03/09 15:26:56;;;;;;;43.43;30.97;;;4.70;99.90;;;;;;6404696;22;20477;-90
2021/03/09 15:29:23;;;;;;;42.00;30.23;;;4.70;99.90;;;;;;6405826;22;20421;-91
2021/03/09 15:31:53;;;;;;;44.90;31.70;;;4.70;99.90;;;;;;6404972;22;20901;-91
2021/03/09 15:34:28;;;;;;;51.27;34.57;;;4.80;99.90;;;;;;6398689;22;20442;-93
2021/03/09 15:37:11;;;;;;;55.23;37.73;;;4.90;99.90;;;;;;6402389;22;20424;-93
2021/03/09 15:39:56;;;;;;;55.30;38.20;;;4.80;99.90;;;;;;6396915;22;20883;-93
2021/03/09 15:42:43;;;;;;;54.87;36.20;;;4.80;99.90;;;;;;6404800;22;20402;-93
2021/03/09 15:45:35;;;;;;;56.83;36.47;;;4.80;99.90;;;;;;6403353;22;20765;-93
2021/03/09 15:48:24;;;;;;;49.90;33.90;;;4.80;99.90;;;;;;6403588;22;20449;-90
2021/03/09 15:51:22;;;;;;;55.73;35.43;;;4.80;99.90;;;;;;6405259;22;20410;-93
2021/03/09 15:57:04;;;;;;;48.87;32.47;;;4.80;99.90;;;;;;6397821;22;20877;-93
2021/03/09 15:59:43;;;;;;;48.33;31.33;;;4.80;99.90;;;;;;6402634;22;20390;-93
2021/03/09 16:02:18;;;;;;;48.37;32.60;;;4.80;99.90;;;;;;6405924;22;20579;-94
2021/03/09 16:04:52;;;;;;;46.90;32.10;;;4.80;99.90;;;;;;6402914;22;20453;-93
2021/03/09 16:07:27;;;;;;;42.20;31.40;;;4.80;99.90;;;;;;6403500;22;20395;-93
2021/03/09 16:10:46;;;;;;;44.83;31.40;;;4.80;99.90;;;;;;6405780;22;20838;-93